Time;durP1;ratioP1;P1;durP2;ratioP2;P2;SDS_P1;SDS_P2;PMS_P1;PMS_P2;Temp;Humidity;BMP_temperature;BMP_pressure;BME280_temperature;BME280_humidity;BME280_pressure;Samples;Min_cycle;Max_cycle;Signal;HPM_P1;HPM_P2
2021/10/13 00:02:16;;;;;;;20.25;15.05;;;;;;;9.36;73.49;99253.83;1782795;80;20962;-76
2021/10/13 00:04:43;;;;;;;22.37;16.62;;;;;;;9.38;73.52;99254.41;1782690;80;20948;-76
2021/10/13 00:07:09;;;;;;;21.82;15.60;;;;;;;9.39;73.53;99254.69;1761892;80;20979;-71
2021/10/13 00:09:35;;;;;;;24.18;18.45;;;;;;;9.39;73.53;99270.79;1784158;79;21085;-75
2021/10/13 00:12:02;;;;;;;22.82;19.02;;;;;;;9.39;73.66;99276.69;1771173;79;21050;-71
2021/10/13 00:14:29;;;;;;;24.43;17.87;;;;;;;9.37;73.78;99278.80;1797577;79;21219;-73
2021/10/13 00:17:02;;;;;;;22.13;15.32;;;;;;;9.32;73.93;99272.03;1794717;79;21022;-70
2021/10/13 00:19:24;;;;;;;22.30;17.62;;;;;;;9.30;74.18;99276.33;1793863;79;21071;-68
2021/10/13 00:21:51;;;;;;;20.75;15.72;;;;;;;9.27;74.41;99264.73;1795066;79;21018;-68
2021/10/13 00:24:17;;;;;;;19.87;15.63;;;;;;;9.28;74.55;99262.87;1765671;79;20960;-73
2021/10/13 00:26:44;;;;;;;26.87;17.50;;;;;;;9.26;74.74;99263.11;1793115;79;21251;-69
2021/10/13 00:29:10;;;;;;;22.07;18.00;;;;;;;9.25;74.92;99273.59;1771122;79;21063;-70
2021/10/13 00:31:36;;;;;;;27.37;18.17;;;;;;;9.20;75.04;99254.75;1771656;79;21534;-68
2021/10/13 00:34:03;;;;;;;23.35;16.90;;;;;;;9.15;75.19;99263.55;1796157;79;21054;-69
2021/10/13 00:36:29;;;;;;;23.57;19.02;;;;;;;9.09;75.39;99264.55;1765356;80;20999;-69
2021/10/13 00:38:55;;;;;;;27.65;19.42;;;;;;;9.05;75.52;99260.74;1786338;79;21136;-71
2021/10/13 00:41:22;;;;;;;27.37;16.42;;;;;;;9.01;75.77;99259.63;1729725;82;21636;-70
2021/10/13 00:43:48;;;;;;;24.85;17.23;;;;;;;8.96;76.10;99251.52;1712011;82;21060;-68
2021/10/13 00:46:14;;;;;;;22.87;16.45;;;;;;;8.91;76.33;99246.62;1711218;82;21614;-71
2021/10/13 00:48:41;;;;;;;27.05;17.82;;;;;;;8.88;76.57;99249.78;1739652;82;21584;-69
2021/10/13 00:51:08;;;;;;;25.70;17.60;;;;;;;8.85;76.83;99257.80;1734016;81;21039;-69
2021/10/13 00:53:35;;;;;;;21.85;16.50;;;;;;;8.83;76.93;99257.76;1760799;81;20900;-69
2021/10/13 00:56:01;;;;;;;23.65;17.80;;;;;;;8.81;77.01;99257.21;1759633;81;20940;-69
2021/10/13 00:58:28;;;;;;;24.77;17.45;;;;;;;8.79;77.11;99266.02;1757873;81;21518;-70
2021/10/13 01:00:58;;;;;;;23.80;17.35;;;;;;;8.74;77.20;99260.88;1765551;80;21533;-69
2021/10/13 01:03:47;;;;;;;26.97;18.07;;;;;;;8.72;77.32;99266.22;1790856;79;21067;-69
2021/10/13 01:06:38;;;;;;;24.18;16.25;;;;;;;8.70;77.42;99271.82;1771395;79;21815;-70
2021/10/13 01:09:18;;;;;;;26.12;17.75;;;;;;;8.71;77.67;99265.94;1791271;79;20957;-71
2021/10/13 01:12:22;;;;;;;27.55;17.02;;;;;;;8.74;77.69;99271.61;1776934;80;21051;-69
2021/10/13 01:15:03;;;;;;;19.17;15.15;;;;;;;8.79;77.65;99278.09;1758752;80;21055;-71
2021/10/13 01:17:40;;;;;;;25.32;18.35;;;;;;;8.82;77.67;99281.11;1778469;80;21872;-70
2021/10/13 01:20:30;;;;;;;22.35;17.55;;;;;;;8.78;77.76;99275.15;1726705;82;21584;-69
2021/10/13 01:23:16;;;;;;;24.92;16.67;;;;;;;8.71;77.80;99278.81;1758453;80;21160;-70
2021/10/13 01:26:09;;;;;;;24.98;18.48;;;;;;;8.63;77.92;99267.16;1778799;80;21000;-71
2021/10/13 01:28:36;;;;;;;27.48;19.17;;;;;;;8.57;78.15;99261.98;1758611;80;21528;-71
2021/10/13 01:31:19;;;;;;;25.05;17.75;;;;;;;8.55;78.44;99260.08;1758791;80;21197;-69
2021/10/13 01:33:56;;;;;;;23.90;19.27;;;;;;;8.56;78.55;99250.98;1778645;80;20984;-71
2021/10/13 01:36:27;;;;;;;24.63;17.40;;;;;;;8.63;78.66;99244.37;1778812;80;20976;-71
2021/10/13 01:38:53;;;;;;;23.07;18.48;;;;;;;8.70;78.71;99253.05;1778194;80;21054;-71
2021/10/13 01:41:20;;;;;;;26.42;18.75;;;;;;;8.73;78.58;99247.72;1778523;80;21501;-70
2021/10/13 01:43:49;;;;;;;23.12;18.00;;;;;;;8.77;78.50;99250.73;1758408;80;21903;-71
2021/10/13 01:46:15;;;;;;;26.33;18.60;;;;;;;8.79;78.33;99250.75;1778579;80;20956;-71
2021/10/13 01:48:44;;;;;;;22.95;17.15;;;;;;;8.76;78.28;99257.96;1758491;80;21013;-70
2021/10/13 01:51:12;;;;;;;24.82;18.95;;;;;;;8.70;78.32;99257.60;1778664;80;20956;-71
2021/10/13 01:53:40;;;;;;;22.95;16.30;;;;;;;8.63;78.47;99256.44;1778312;80;22241;-74
2021/10/13 01:56:09;;;;;;;27.22;17.95;;;;;;;8.56;78.76;99248.30;1758591;80;21872;-70
2021/10/13 01:58:36;;;;;;;28.95;19.65;;;;;;;8.53;78.97;99258.19;1778360;80;20892;-70
2021/10/13 02:01:02;;;;;;;24.60;19.55;;;;;;;8.54;79.11;99259.26;1758586;80;20956;-71
2021/10/13 02:03:30;;;;;;;21.25;15.78;;;;;;;8.62;79.15;99264.74;1778338;80;20969;-73
2021/10/13 02:06:00;;;;;;;22.32;17.30;;;;;;;8.65;79.00;99264.23;1758783;80;21102;-72
2021/10/13 02:08:28;;;;;;;24.63;17.37;;;;;;;8.59;78.96;99278.09;1758605;80;21103;-71
2021/10/13 02:10:57;;;;;;;22.13;17.48;;;;;;;8.51;79.12;99271.83;1778369;79;20925;-72
2021/10/13 02:13:25;;;;;;;22.15;16.67;;;;;;;8.45;79.30;99274.66;1778260;80;20947;-72
2021/10/13 02:15:52;;;;;;;21.07;15.43;;;;;;;8.36;79.74;99280.98;1756975;80;21052;-71
2021/10/13 02:18:23;;;;;;;21.52;16.40;;;;;;;8.30;80.16;99289.46;1758395;80;20989;-75
2021/10/13 02:20:50;;;;;;;23.45;17.32;;;;;;;8.26;80.66;99286.14;1778486;80;21117;-72
2021/10/13 02:23:17;;;;;;;22.90;17.52;;;;;;;8.23;81.09;99291.48;1778204;80;21030;-72
2021/10/13 02:25:47;;;;;;;20.05;16.52;;;;;;;8.22;81.43;99290.38;1758476;80;21011;-73
2021/10/13 02:28:18;;;;;;;26.35;18.95;;;;;;;8.24;81.52;99293.63;1778532;80;20973;-73
2021/10/13 02:30:46;;;;;;;17.77;15.75;;;;;;;8.20;81.77;99291.95;1778475;80;21024;-72
2021/10/13 02:33:12;;;;;;;22.32;18.57;;;;;;;8.15;81.97;99291.86;1778053;80;21081;-73
2021/10/13 02:35:39;;;;;;;21.40;16.25;;;;;;;8.10;82.08;99290.47;1778360;80;20924;-72
2021/10/13 02:38:05;;;;;;;25.25;18.02;;;;;;;8.03;82.25;99280.44;1758540;80;21056;-73
2021/10/13 02:40:31;;;;;;;23.67;17.27;;;;;;;7.99;82.50;99277.15;1758253;80;20981;-71
2021/10/13 02:42:58;;;;;;;28.45;19.05;;;;;;;7.94;82.87;99273.86;1778445;80;20979;-71
2021/10/13 02:45:24;;;;;;;23.77;17.42;;;;;;;7.92;83.18;99276.48;1758403;80;21010;-71
2021/10/13 02:47:56;;;;;;;24.10;17.73;;;;;;;7.89;83.47;99283.14;1758768;80;21049;-72
2021/10/13 02:50:41;;;;;;;25.50;16.47;;;;;;;7.84;83.51;99290.56;1778544;80;20894;-72
2021/10/13 02:53:22;;;;;;;23.30;16.62;;;;;;;7.79;83.68;99293.67;1758285;80;21025;-72
2021/10/13 02:56:04;;;;;;;23.47;17.85;;;;;;;7.71;83.94;99288.20;1746059;82;21048;-72
2021/10/13 02:58:45;;;;;;;19.65;16.30;;;;;;;7.65;84.18;99289.16;1755518;80;21075;-74
2021/10/13 03:01:14;;;;;;;22.62;17.12;;;;;;;7.60;84.49;99289.59;1758121;80;20916;-73
2021/10/13 03:03:51;;;;;;;22.22;17.32;;;;;;;7.54;84.82;99286.00;1777683;80;20890;-73
2021/10/13 03:06:17;;;;;;;21.42;16.57;;;;;;;7.51;85.10;99295.86;1778624;80;21462;-72
2021/10/13 03:08:47;;;;;;;19.77;15.68;;;;;;;7.46;85.31;99295.77;1778042;80;21070;-73
2021/10/13 03:11:14;;;;;;;22.87;17.57;;;;;;;7.44;85.63;99291.98;1753651;81;21051;-73
2021/10/13 03:13:42;;;;;;;21.62;17.25;;;;;;;7.42;85.80;99299.45;1748315;81;21000;-73
2021/10/13 03:16:08;;;;;;;24.75;17.32;;;;;;;7.42;85.95;99306.14;1718253;81;21000;-74
2021/10/13 03:18:36;;;;;;;20.65;16.05;;;;;;;7.42;86.23;99306.14;1760688;80;21619;-75
2021/10/13 03:21:04;;;;;;;18.40;16.02;;;;;;;7.43;86.39;99318.98;1783510;80;21298;-73
2021/10/13 03:23:30;;;;;;;23.73;19.07;;;;;;;7.44;86.48;99318.73;1759743;81;21532;-72
2021/10/13 03:26:10;;;;;;;25.32;18.32;;;;;;;7.45;86.56;99316.88;1756676;81;20988;-72
2021/10/13 03:28:39;;;;;;;19.60;16.17;;;;;;;7.48;86.71;99308.91;1767667;80;21010;-71
2021/10/13 03:31:06;;;;;;;20.00;17.48;;;;;;;7.50;86.91;99308.95;1714737;83;21539;-72
2021/10/13 03:33:33;;;;;;;20.32;16.62;;;;;;;7.51;87.02;99305.75;1778958;80;21035;-71
2021/10/13 03:35:59;;;;;;;25.80;18.45;;;;;;;7.53;87.08;99311.69;1783392;80;22038;-72
2021/10/13 03:38:25;;;;;;;24.85;17.20;;;;;;;7.56;87.20;99305.32;1783374;80;20984;-71
2021/10/13 03:40:52;;;;;;;24.98;19.52;;;;;;;7.60;87.21;99305.64;1783663;80;21534;-73
2021/10/13 03:43:18;;;;;;;24.72;17.90;;;;;;;7.60;87.17;99305.64;1782920;80;21066;-71
2021/10/13 03:45:45;;;;;;;19.57;17.17;;;;;;;7.58;87.17;99301.86;1783752;80;20987;-71
2021/10/13 03:48:11;;;;;;;24.63;18.25;;;;;;;7.55;87.20;99305.02;1783431;80;21877;-72
2021/10/13 03:50:37;;;;;;;22.98;17.30;;;;;;;7.49;87.31;99312.66;1761839;80;21494;-73
2021/10/13 03:53:04;;;;;;;20.17;17.35;;;;;;;7.44;87.55;99311.23;1760267;80;21115;-74
2021/10/13 03:55:31;;;;;;;25.35;18.10;;;;;;;7.40;87.83;99307.41;1789132;80;38721;-72
2021/10/13 03:57:58;;;;;;;23.75;17.73;;;;;;;7.39;88.24;99309.79;1775221;80;21036;-71
2021/10/13 04:00:24;;;;;;;24.15;19.12;;;;;;;7.38;88.38;99314.87;1763429;80;21067;-70
2021/10/13 04:02:51;;;;;;;24.60;18.20;;;;;;;7.34;88.48;99317.20;1763184;80;21011;-71
2021/10/13 04:05:17;;;;;;;22.05;19.05;;;;;;;7.32;88.72;99313.15;1757758;80;20936;-73
2021/10/13 04:07:44;;;;;;;24.60;20.82;;;;;;;7.32;88.86;99314.48;1762817;80;21257;-72
2021/10/13 04:10:12;;;;;;;29.70;19.52;;;;;;;7.30;89.04;99316.57;1780655;79;21479;-71
2021/10/13 04:12:40;;;;;;;23.50;18.25;;;;;;;7.30;89.19;99316.57;1771344;79;21078;-72
2021/10/13 04:15:08;;;;;;;23.55;18.95;;;;;;;7.31;89.36;99316.87;1765810;80;20920;-72
2021/10/13 04:17:35;;;;;;;27.02;20.65;;;;;;;7.32;89.43;99312.63;1778412;80;21497;-71
2021/10/13 04:20:08;;;;;;;26.42;18.67;;;;;;;7.33;89.45;99311.58;1764713;79;21049;-74
2021/10/13 04:22:34;;;;;;;29.98;21.97;;;;;;;7.32;89.51;99310.47;1771487;79;21025;-78
2021/10/13 04:25:01;;;;;;;27.75;21.23;;;;;;;7.31;89.70;99312.86;1766184;80;21076;-75
2021/10/13 04:27:27;;;;;;;34.78;21.70;;;;;;;7.28;89.89;99318.69;1790141;80;20959;-74
2021/10/13 04:29:54;;;;;;;32.20;22.02;;;;;;;7.29;90.08;99325.67;1792310;79;21020;-73
2021/10/13 04:32:20;;;;;;;28.92;20.82;;;;;;;7.31;90.26;99326.23;1796259;79;21500;-73
2021/10/13 04:34:48;;;;;;;29.45;23.47;;;;;;;7.35;90.35;99324.17;1769554;79;20993;-74
2021/10/13 04:37:15;;;;;;;27.47;20.33;;;;;;;7.41;90.32;99325.09;1795929;79;21290;-74
2021/10/13 04:39:42;;;;;;;26.68;19.48;;;;;;;7.46;90.23;99318.50;1796106;79;21064;-73
2021/10/13 04:42:08;;;;;;;31.42;23.30;;;;;;;7.47;90.08;99311.30;1730547;82;21019;-72
2021/10/13 04:44:34;;;;;;;26.20;20.25;;;;;;;7.46;89.97;99321.18;1722596;82;21018;-77
2021/10/13 04:47:00;;;;;;;32.85;22.27;;;;;;;7.47;89.99;99335.38;1717955;82;20986;-72
2021/10/13 04:49:27;;;;;;;27.50;22.90;;;;;;;7.44;89.92;99332.11;1716713;82;21994;-73
2021/10/13 04:51:55;;;;;;;28.83;21.87;;;;;;;7.43;89.97;99335.05;1741958;81;20951;-72
2021/10/13 04:54:23;;;;;;;28.87;22.30;;;;;;;7.43;90.07;99344.41;1741919;81;21042;-73
2021/10/13 04:56:49;;;;;;;28.07;23.20;;;;;;;7.44;90.18;99341.47;1741605;81;21449;-72
2021/10/13 04:59:16;;;;;;;27.60;20.65;;;;;;;7.47;90.20;99340.72;1742011;82;20967;-73
2021/10/13 05:01:42;;;;;;;27.90;22.85;;;;;;;7.48;90.22;99340.49;1716638;82;21772;-74
2021/10/13 05:04:09;;;;;;;29.48;23.60;;;;;;;7.49;90.22;99339.94;1740735;82;20995;-72
2021/10/13 05:06:36;;;;;;;29.18;21.80;;;;;;;7.47;90.35;99334.03;1742131;81;21021;-82
2021/10/13 05:09:02;;;;;;;26.68;23.35;;;;;;;7.46;90.43;99339.91;1704666;83;21015;-73
2021/10/13 05:11:30;;;;;;;34.38;22.17;;;;;;;7.48;90.57;99337.82;1724010;82;21581;-71
2021/10/13 05:13:57;;;;;;;33.08;24.60;;;;;;;7.52;90.62;99340.30;1748845;81;21216;-71
2021/10/13 05:16:23;;;;;;;31.68;23.20;;;;;;;7.55;90.62;99347.02;1736841;81;20978;-71
2021/10/13 05:18:52;;;;;;;32.80;24.05;;;;;;;7.60;90.65;99350.62;1762082;81;20986;-72
2021/10/13 05:21:19;;;;;;;26.55;21.05;;;;;;;7.63;90.44;99351.47;1737121;81;20994;-71
2021/10/13 05:23:45;;;;;;;33.10;24.18;;;;;;;7.64;90.33;99349.08;1755971;80;21655;-71
2021/10/13 05:26:12;;;;;;;32.33;23.38;;;;;;;7.64;90.26;99345.07;1729261;83;21211;-71
2021/10/13 05:28:38;;;;;;;29.82;23.47;;;;;;;7.62;90.32;99356.55;1728280;83;20947;-70
2021/10/13 05:31:05;;;;;;;35.78;24.20;;;;;;;7.62;90.44;99354.41;1754985;80;20995;-70
2021/10/13 05:33:31;;;;;;;28.47;23.65;;;;;;;7.61;90.61;99352.77;1761826;80;20940;-71
2021/10/13 05:35:58;;;;;;;25.35;21.68;;;;;;;7.62;90.75;99357.08;1761861;80;21035;-70
2021/10/13 05:38:24;;;;;;;29.82;21.95;;;;;;;7.62;90.69;99360.57;1781955;80;21432;-72
2021/10/13 05:40:50;;;;;;;30.92;24.72;;;;;;;7.65;90.68;99364.62;1772672;80;20964;-71
2021/10/13 05:43:17;;;;;;;28.52;21.10;;;;;;;7.67;90.69;99374.05;1761970;80;21051;-72
2021/10/13 05:45:43;;;;;;;35.25;24.05;;;;;;;7.70;90.66;99380.25;1782303;80;20988;-71
2021/10/13 05:48:09;;;;;;;32.08;22.52;;;;;;;7.73;90.66;99386.45;1761821;80;21044;-73
2021/10/13 05:50:37;;;;;;;26.82;22.13;;;;;;;7.74;90.60;99394.78;1771862;80;21484;-71
2021/10/13 05:53:04;;;;;;;29.70;23.02;;;;;;;7.77;90.61;99392.95;1761817;80;21564;-71
2021/10/13 05:55:31;;;;;;;33.42;24.40;;;;;;;7.81;90.51;99389.30;1781856;80;21060;-69
2021/10/13 05:57:57;;;;;;;30.23;21.80;;;;;;;7.83;90.40;99381.82;1779718;80;21019;-72
2021/10/13 06:00:27;;;;;;;26.97;21.25;;;;;;;7.84;90.34;99376.77;1769560;80;20989;-72
2021/10/13 06:02:51;;;;;;;29.45;22.98;;;;;;;7.85;90.27;99387.23;1761570;80;22115;-70
2021/10/13 06:05:18;;;;;;;30.92;22.73;;;;;;;7.86;90.30;99384.83;1783296;80;22194;-72
2021/10/13 06:07:44;;;;;;;29.32;23.42;;;;;;;7.86;90.21;99380.81;1762946;80;21067;-72
2021/10/13 06:10:11;;;;;;;22.40;19.42;;;;;;;7.87;90.21;99381.63;1772674;79;21157;-72
2021/10/13 06:12:37;;;;;;;28.17;22.70;;;;;;;7.87;90.46;99387.80;1778148;80;21048;-77
2021/10/13 06:15:04;;;;;;;30.60;24.07;;;;;;;7.88;90.31;99386.75;1758783;80;21003;-74
2021/10/13 06:17:34;;;;;;;32.80;24.87;;;;;;;7.87;90.56;99374.41;1778264;80;20924;-73
2021/10/13 06:20:00;;;;;;;26.93;22.93;;;;;;;7.90;90.48;99374.47;1758533;80;21059;-74
2021/10/13 06:22:27;;;;;;;35.25;26.17;;;;;;;7.99;90.50;99381.58;1778335;80;21305;-74
2021/10/13 06:24:53;;;;;;;34.33;24.82;;;;;;;8.04;90.31;99377.14;1733744;80;20967;-74
2021/10/13 06:27:19;;;;;;;34.95;25.32;;;;;;;8.10;90.09;99380.72;1778438;80;21114;-75
2021/10/13 06:29:46;;;;;;;31.55;24.60;;;;;;;8.12;89.79;99383.43;1725126;82;21098;-74
2021/10/13 06:32:12;;;;;;;30.97;24.80;;;;;;;8.14;89.66;99382.67;1754201;80;20963;-71
2021/10/13 06:34:38;;;;;;;27.82;21.23;;;;;;;8.15;89.54;99382.94;1777974;80;20984;-75
2021/10/13 06:37:05;;;;;;;30.72;23.70;;;;;;;8.17;89.44;99390.73;1758618;80;21011;-77
2021/10/13 06:39:33;;;;;;;29.35;23.40;;;;;;;8.17;89.26;99391.56;1758214;80;21384;-74
2021/10/13 06:41:59;;;;;;;31.90;24.80;;;;;;;8.18;89.07;99399.89;1758408;80;21044;-75
2021/10/13 06:44:25;;;;;;;31.93;25.10;;;;;;;8.14;88.83;99389.89;1778684;80;20984;-76
2021/10/13 06:46:54;;;;;;;31.77;22.58;;;;;;;8.15;88.95;99396.33;1760868;80;21549;-75
2021/10/13 06:49:21;;;;;;;32.35;23.55;;;;;;;8.19;89.04;99404.20;1759026;80;20981;-78
2021/10/13 06:51:48;;;;;;;30.70;23.25;;;;;;;8.16;88.91;99394.47;1778845;80;22121;-76
2021/10/13 06:54:15;;;;;;;31.05;24.52;;;;;;;8.23;89.08;99399.16;1778495;80;20971;-75
2021/10/13 06:56:41;;;;;;;35.35;26.70;;;;;;;8.33;88.85;99393.20;1778630;80;20963;-71
2021/10/13 06:59:08;;;;;;;32.38;24.35;;;;;;;8.40;88.72;99406.70;1758506;80;20956;-73
2021/10/13 07:01:35;;;;;;;32.15;24.80;;;;;;;8.43;87.88;99412.13;1758168;80;21063;-74
2021/10/13 07:04:01;;;;;;;30.55;24.47;;;;;;;8.37;87.80;99410.41;1778233;80;21495;-74
2021/10/13 07:06:27;;;;;;;36.63;23.57;;;;;;;8.34;87.76;99417.08;1778574;80;20959;-74
2021/10/13 07:08:56;;;;;;;31.60;23.22;;;;;;;8.31;87.91;99413.52;1700931;83;22009;-74
2021/10/13 07:11:24;;;;;;;24.10;17.80;;;;;;;8.31;88.10;99411.66;1744893;82;20953;-74
2021/10/13 07:13:52;;;;;;;28.67;23.32;;;;;;;8.27;88.28;99406.99;1778629;80;20976;-73
2021/10/13 07:16:20;;;;;;;38.55;26.35;;;;;;;8.29;88.17;99414.27;1778602;80;21129;-75
2021/10/13 07:18:46;;;;;;;30.30;24.18;;;;;;;8.36;88.28;99412.27;1758244;80;21003;-75
2021/10/13 07:21:12;;;;;;;25.92;22.27;;;;;;;8.43;88.23;99407.58;1758787;80;21014;-73
2021/10/13 07:23:39;;;;;;;32.48;25.08;;;;;;;8.47;87.93;99410.58;1746798;81;21247;-74
2021/10/13 07:26:06;;;;;;;42.60;24.07;;;;;;;8.54;87.89;99407.20;1781719;80;20964;-72
2021/10/13 07:28:39;;;;;;;27.82;23.12;;;;;;;8.62;87.85;99404.95;1779544;80;21068;-72
2021/10/13 07:31:03;;;;;;;30.80;23.98;;;;;;;8.69;87.47;99408.78;1778232;80;21521;-72
2021/10/13 07:33:29;;;;;;;25.43;21.45;;;;;;;8.77;87.39;99406.23;1758497;80;21033;-75
2021/10/13 07:35:55;;;;;;;28.07;20.90;;;;;;;8.85;87.14;99403.95;1778226;80;21491;-74
2021/10/13 07:38:22;;;;;;;23.92;19.48;;;;;;;8.91;86.61;99406.19;1778772;80;20994;-73
2021/10/13 07:40:49;;;;;;;29.32;23.12;;;;;;;8.95;86.51;99401.95;1745882;81;21036;-72
2021/10/13 07:43:15;;;;;;;30.80;22.98;;;;;;;8.96;86.12;99410.28;1778416;80;21101;-74
2021/10/13 07:45:42;;;;;;;30.65;23.62;;;;;;;9.00;85.98;99405.52;1758234;80;20936;-75
2021/10/13 07:48:08;;;;;;;28.15;22.62;;;;;;;9.00;85.63;99400.16;1732420;80;21008;-74
2021/10/13 07:50:34;;;;;;;32.33;23.38;;;;;;;9.03;85.55;99403.67;1758166;80;21576;-76
2021/10/13 07:53:01;;;;;;;32.30;24.75;;;;;;;8.97;85.34;99397.95;1726245;82;21746;-74
2021/10/13 07:55:28;;;;;;;32.08;23.42;;;;;;;8.95;85.11;99401.95;1777961;80;20905;-73
2021/10/13 07:57:54;;;;;;;31.85;23.00;;;;;;;8.98;85.24;99398.77;1778705;80;21003;-73
2021/10/13 08:00:21;;;;;;;39.00;23.07;;;;;;;9.04;85.21;99397.78;1778448;80;20960;-73
2021/10/13 08:02:47;;;;;;;33.02;21.30;;;;;;;9.09;84.84;99397.33;1709105;80;21048;-74
2021/10/13 08:05:16;;;;;;;27.52;22.98;;;;;;;9.15;84.73;99402.25;1759202;80;22442;-73
2021/10/13 08:07:44;;;;;;;26.50;20.72;;;;;;;9.24;84.58;99401.28;1747792;82;20948;-73
2021/10/13 08:10:10;;;;;;;28.55;22.37;;;;;;;9.28;84.02;99404.56;1760489;80;21024;-74
2021/10/13 08:12:38;;;;;;;29.80;25.12;;;;;;;9.30;83.77;99401.11;1793318;79;21066;-76
2021/10/13 08:15:06;;;;;;;32.33;24.07;;;;;;;9.34;83.68;99402.23;1729368;83;21103;-77
2021/10/13 08:17:33;;;;;;;28.25;21.55;;;;;;;9.40;83.46;99406.58;1728289;83;21188;-75
2021/10/13 08:20:03;;;;;;;30.15;19.80;;;;;;;9.45;82.96;99396.44;1727669;83;21086;-75
2021/10/13 08:22:27;;;;;;;24.92;20.32;;;;;;;9.48;82.83;99402.14;1790128;80;21110;-75
2021/10/13 08:24:53;;;;;;;26.57;21.50;;;;;;;9.53;82.32;99399.52;1793120;79;21031;-76
2021/10/13 08:27:20;;;;;;;28.55;21.35;;;;;;;9.55;81.93;99402.75;1795587;79;21007;-73
2021/10/13 08:29:46;;;;;;;30.88;21.97;;;;;;;9.55;81.68;99396.04;1760988;81;21171;-74
2021/10/13 08:32:13;;;;;;;29.48;22.22;;;;;;;9.52;81.60;99398.42;1760407;81;21207;-72
2021/10/13 08:34:39;;;;;;;29.23;20.85;;;;;;;9.47;81.20;99399.17;1760824;81;21011;-72
2021/10/13 08:37:06;;;;;;;29.07;21.75;;;;;;;9.51;81.39;99394.92;1760484;81;21057;-72
2021/10/13 08:39:33;;;;;;;28.52;20.55;;;;;;;9.59;81.43;99399.06;1760964;81;20977;-76
2021/10/13 08:42:00;;;;;;;22.73;19.27;;;;;;;9.67;80.97;99406.67;1760946;81;21977;-73
2021/10/13 08:44:26;;;;;;;27.37;21.23;;;;;;;9.71;80.55;99399.72;1735518;81;21510;-73
2021/10/13 08:46:53;;;;;;;26.55;20.17;;;;;;;9.67;80.38;99397.80;1761876;81;21002;-69
2021/10/13 08:49:19;;;;;;;27.65;19.30;;;;;;;9.67;80.44;99391.08;1761605;81;21019;-74
2021/10/13 08:51:46;;;;;;;30.10;19.48;;;;;;;9.72;80.34;99386.59;1761002;81;21019;-76
2021/10/13 08:54:15;;;;;;;27.82;20.77;;;;;;;9.78;80.24;99392.83;1761343;81;21466;-74
2021/10/13 08:56:43;;;;;;;26.40;20.02;;;;;;;9.83;80.19;99395.02;1747343;81;20946;-74
2021/10/13 08:59:37;;;;;;;22.20;19.77;;;;;;;9.89;79.91;99398.57;1757823;81;21603;-75
2021/10/13 09:02:04;;;;;;;24.23;19.25;;;;;;;9.91;79.97;99397.27;1751979;81;21619;-75
2021/10/13 09:04:30;;;;;;;27.02;19.35;;;;;;;9.85;79.78;99406.33;1757794;81;21520;-74
2021/10/13 09:07:04;;;;;;;22.77;19.60;;;;;;;9.79;80.07;99398.45;1758788;80;21939;-73
2021/10/13 09:09:31;;;;;;;24.70;21.12;;;;;;;9.76;80.39;99407.84;1760658;80;21041;-77
2021/10/13 09:11:59;;;;;;;25.00;20.43;;;;;;;9.76;80.51;99409.19;1758256;81;21492;-73
2021/10/13 09:14:29;;;;;;;29.50;21.85;;;;;;;9.76;80.62;99409.19;1762016;80;20995;-76
2021/10/13 09:17:07;;;;;;;24.27;20.50;;;;;;;9.77;80.55;99412.16;1768748;80;20928;-74
2021/10/13 09:19:37;;;;;;;23.30;19.40;;;;;;;9.77;80.49;99416.19;1789928;79;21705;-73
2021/10/13 09:22:09;;;;;;;25.32;21.10;;;;;;;9.77;80.48;99416.19;1786876;79;21650;-74
2021/10/13 09:24:43;;;;;;;24.40;19.95;;;;;;;9.77;80.44;99412.69;1813414;78;21018;-74
2021/10/13 09:27:31;;;;;;;25.80;19.42;;;;;;;9.78;80.34;99431.24;1799841;78;20950;-73
2021/10/13 09:30:03;;;;;;;31.85;20.68;;;;;;;9.79;80.24;99418.07;1788810;80;20951;-73
2021/10/13 09:32:31;;;;;;;23.90;20.55;;;;;;;9.78;80.23;99408.95;1788849;80;20880;-73
2021/10/13 09:35:03;;;;;;;23.00;20.02;;;;;;;9.79;80.26;99418.07;1794039;79;20975;-78
2021/10/13 09:37:50;;;;;;;24.30;19.50;;;;;;;9.80;80.26;99418.36;1786479;80;20971;-73
2021/10/13 09:40:34;;;;;;;28.70;20.37;;;;;;;9.80;80.27;99416.20;1766256;80;21006;-73
2021/10/13 09:43:01;;;;;;;29.05;21.12;;;;;;;9.80;80.34;99414.86;1787626;80;21485;-73
2021/10/13 09:45:30;;;;;;;29.15;20.77;;;;;;;9.79;80.19;99411.36;1764356;80;21773;-70
2021/10/13 09:47:58;;;;;;;31.05;21.52;;;;;;;9.79;80.09;99415.91;1787469;80;20941;-77
2021/10/13 09:50:43;;;;;;;25.55;20.10;;;;;;;9.80;80.08;99414.33;1768107;80;21143;-82
2021/10/13 09:53:20;;;;;;;27.02;19.48;;;;;;;9.81;80.00;99421.33;1795666;79;21007;-80
2021/10/13 09:55:47;;;;;;;25.20;20.57;;;;;;;9.77;80.10;99416.72;1763485;81;21036;-83
2021/10/13 09:58:34;;;;;;;24.50;20.27;;;;;;;9.78;80.10;99420.50;1787064;80;21087;-74
2021/10/13 10:01:14;;;;;;;27.60;18.92;;;;;;;9.80;80.17;99421.57;1766821;80;20956;-79
2021/10/13 10:03:42;;;;;;;26.37;20.70;;;;;;;9.85;80.09;99417.08;1788935;80;21021;-72
2021/10/13 10:06:13;;;;;;;21.82;18.52;;;;;;;9.92;79.84;99415.55;1767294;80;20976;-78
2021/10/13 10:09:02;;;;;;;23.60;18.85;;;;;;;9.96;79.70;99419.34;1767768;80;20978;-82
2021/10/13 10:11:32;;;;;;;22.22;19.20;;;;;;;10.00;79.50;99415.09;1789241;79;21154;-77
2021/10/13 10:14:04;;;;;;;23.73;19.73;;;;;;;10.03;79.08;99421.29;1768781;79;20990;-80
2021/10/13 10:16:35;;;;;;;22.05;18.65;;;;;;;10.01;78.95;99417.53;1793582;79;21067;-77
2021/10/13 10:19:21;;;;;;;21.87;16.93;;;;;;;9.97;78.92;99422.32;1789234;80;21086;-72
2021/10/13 10:21:59;;;;;;;23.80;20.02;;;;;;;9.95;78.89;99417.72;1765216;79;20951;-70
2021/10/13 10:24:31;;;;;;;24.18;16.80;;;;;;;9.93;79.14;99418.48;1761742;79;21782;-81
2021/10/13 10:27:27;;;;;;;26.13;18.83;;;;;;;9.97;79.04;99420.98;1812230;78;21046;-80
2021/10/13 10:30:11;;;;;;;25.10;19.65;;;;;;;9.99;78.90;99410.77;1765497;79;20980;-81
2021/10/13 10:32:45;;;;;;;25.55;18.95;;;;;;;10.02;78.76;99413.76;1764413;81;21043;-83
2021/10/13 10:35:15;;;;;;;22.37;19.05;;;;;;;10.03;78.52;99409.20;1764509;80;21034;-81
2021/10/13 10:37:53;;;;;;;23.07;17.50;;;;;;;10.03;78.37;99409.20;1761912;80;21027;-73
2021/10/13 10:40:29;;;;;;;30.00;18.70;;;;;;;10.04;78.44;99410.83;1795610;79;20927;-71
2021/10/13 10:43:20;;;;;;;23.02;17.45;;;;;;;10.09;78.48;99412.22;1795958;79;21006;-70
2021/10/13 10:45:56;;;;;;;22.67;17.95;;;;;;;10.12;78.29;99399.61;1769188;79;20995;-79
2021/10/13 10:48:26;;;;;;;22.02;19.45;;;;;;;10.17;78.08;99403.73;1791620;79;21059;-82
2021/10/13 10:50:57;;;;;;;25.70;18.57;;;;;;;10.20;77.86;99407.27;1795333;79;21140;-72
2021/10/13 10:53:37;;;;;;;25.97;18.95;;;;;;;10.21;77.71;99411.59;1795759;79;20943;-72
2021/10/13 10:56:19;;;;;;;24.65;18.48;;;;;;;10.26;77.63;99415.67;1768693;79;21058;-72
2021/10/13 10:59:07;;;;;;;31.02;20.45;;;;;;;10.28;77.32;99412.70;1795922;79;20958;-71
2021/10/13 11:01:34;;;;;;;31.62;18.95;;;;;;;10.29;77.30;99419.70;1792775;79;20948;-77
2021/10/13 11:04:11;;;;;;;29.57;18.25;;;;;;;10.31;77.22;99414.34;1763452;80;21020;-77
2021/10/13 11:06:39;;;;;;;24.50;18.20;;;;;;;10.31;77.19;99416.25;1790059;80;20972;-79
2021/10/13 11:09:11;;;;;;;26.45;17.15;;;;;;;10.34;77.12;99421.92;1794752;79;21097;-75
2021/10/13 11:11:43;;;;;;;25.37;20.48;;;;;;;10.36;77.01;99419.77;1768512;79;20995;-76
2021/10/13 11:14:21;;;;;;;26.93;20.60;;;;;;;10.35;76.74;99422.20;1795880;79;21022;-77
2021/10/13 11:16:57;;;;;;;25.70;19.17;;;;;;;10.37;76.80;99417.89;1795795;79;21427;-77
2021/10/13 11:19:33;;;;;;;25.97;19.52;;;;;;;10.37;76.60;99417.89;1795751;79;20958;-76
2021/10/13 11:22:08;;;;;;;24.82;17.95;;;;;;;10.30;76.73;99422.16;1795632;79;21531;-74
2021/10/13 11:24:38;;;;;;;24.82;17.77;;;;;;;10.30;76.94;99424.84;1769674;79;21520;-75
2021/10/13 11:27:04;;;;;;;24.37;18.50;;;;;;;10.32;76.99;99424.04;1770026;79;21030;-76
2021/10/13 11:29:35;;;;;;;22.22;18.77;;;;;;;10.36;77.06;99424.36;1768869;79;21034;-73
2021/10/13 11:32:10;;;;;;;24.45;20.30;;;;;;;10.42;76.99;99420.63;1767419;79;21032;-74
2021/10/13 11:34:37;;;;;;;25.05;19.48;;;;;;;10.47;76.74;99418.80;1793043;79;20975;-73
2021/10/13 11:37:04;;;;;;;26.45;20.85;;;;;;;10.46;76.23;99421.20;1794872;79;20976;-75